HOURLY OBS INDEX

065

Central Western Slopes - south

COWRA AIRPORT AWS

Site: 065111
Alt: 300.4m
5km SW of COWRA


  Time     Wind        Temp  DP   Baro     Rain since   Rain past  Vis(m), Cloud(base in m), Weather
  local        km/h                         9am  last   hr   10m    
Mon 20:00    N  9/ 11  26.6 10.7  1014.7    0.0   0.0   0.0   0.0   ----- 
Mon 20:00    N  9/ 11  26.6 10.7  1014.7    0.0   0.0  ----   0.0   ----- 
Mon 20:30    N 11/ 13  25.6 11.0  1014.9    0.0   0.0   0.0   0.0   ----- 
Mon 20:30    N 11/ 13  25.6 11.0  1014.9    0.0   0.0  ----   0.0   ----- 
Mon 21:00    N  9/ 11  25.2 11.0  1015.3    0.0   0.0   0.0   0.0   ----- 
Mon 21:00    N  9/ 11  25.2 11.0  1015.3    0.0   0.0  ----   0.0   ----- 
Mon 21:30    N  9/ 13  24.6 11.2  1015.7    0.0   0.0   0.0   0.0   ----- 
Mon 22:00    N 11/ 13  24.1 11.4  1015.9    0.0   0.0   0.0   0.0   ----- 
Mon 22:30  NNE  7/ 11  24.2 11.5  1015.8    0.0   0.0   0.0   0.0   ----- 
Mon 23:00    N 11/ 13  24.1 11.4  1015.9    0.0   0.0   0.0   0.0   ----- 
Mon 23:30    N 11/ 15  24.3 11.6  1015.7    0.0   0.0   0.0   0.0   ----- 
Tue 00:00    N  2/  6  23.7 11.7  1015.6    0.0   0.0   0.0   0.0   ----- 
Tue 00:30   SE 11/ 15  23.3 11.4  1015.7    0.0   0.0   0.0   0.0   ----- 
Tue 01:00   NE  6/  9  22.8 11.5  1015.6    0.0   0.0   0.0   0.0   ----- 
Tue 01:30    E  4/  7  22.4 11.8  1015.6    0.0   0.0   0.0   0.0   ----- 

DUBBO AIRPORT AWS

Site: 065070
Alt: 284.0m
4km NW of DUBBO


  Time     Wind        Temp  DP   Baro     Rain since   Rain past  Vis(m), Cloud(base in m), Weather
  local        km/h                         9am  last   hr   10m    
Mon 20:00  SSE 19/ 26  28.6  8.8  1014.4    0.0   0.0   0.0   0.0   10000|OC3750 
Mon 20:00  SSE 19/ 26  28.6  8.8  1014.4    0.0   0.0  ----   0.0   10000|OC3750 
Mon 20:30   SE 15/ 20  28.1  9.4  1014.7    0.0   0.0   0.0   0.0   10000|OC3450 
Mon 20:30   SE 15/ 20  28.1  9.4  1014.7    0.0   0.0  ----   0.0   10000|OC3450 
Mon 21:00   SE 11/ 13  27.6  9.4  1015.4    0.0   0.0   0.0   0.0   10000|OC3450 
Mon 21:00   SE 11/ 13  27.6  9.4  1015.4    0.0   0.0  ----   0.0   10000|OC3450 
Mon 21:30    S 13/ 20  27.8  8.6  1016.0    0.0   0.0   0.0   0.0   10000|OC3450 
Mon 22:00   SE 17/ 22  27.1  9.0  1015.7    0.0   0.0   0.0   0.0   10000|SC2640 BR3150 
Mon 22:30    S 22/ 30  27.1  8.5  1016.4    0.0   0.0   0.0   0.0   10000 
Mon 23:00  SSE 15/ 20  26.4  8.4  1016.4    0.0   0.0   0.0   0.0   10000|OC3300 
Mon 23:30  SSE 17/ 24  25.9  8.8  1016.9    0.0   0.0   0.0   0.0   10000|OC3300 
Tue 00:00  SSE 28/ 39  25.4  9.7  1017.0    0.0   0.0   0.0   0.0   10000|OC3600 
Tue 00:30  SSE 22/ 30  24.4 10.7  1016.7    0.0   0.0   0.0   0.0   10000|OC3300 
Tue 01:00  SSE 32/ 45  23.4 11.1  1016.3    0.0   0.0   0.0   0.0   10000|SC2400 BR3000 OC3600 
Tue 01:30   SE 24/ 33  23.5 11.5  1016.4    0.0   0.0   0.0   0.0   10000|OC3600 

FORBES AIRPORT AWS

Site: 065103
Alt: 230.4m
34km SW of PARKES


  Time     Wind        Temp  DP   Baro     Rain since   Rain past  Vis(m), Cloud(base in m), Weather
  local        km/h                         9am  last   hr   10m    
Mon 20:00    N  9/ 11  25.5 14.0  1014.5    0.0   0.0   0.0   0.0   ----- 
Mon 20:00    N  9/ 11  25.5 14.0  1014.5    0.0   0.0  ----   0.0   ----- 
Mon 20:30    C  0/  4  25.0 13.5  1015.1    0.0   0.0   0.0   0.0   ----- 
Mon 20:30    C  0/  4  25.0 13.5  1015.1    0.0   0.0  ----   0.0   ----- 
Mon 21:00    C  0/  0  24.8 14.6  1014.9    0.0   0.0   0.0   0.0   ----- 
Mon 21:00    C  0/  0  24.8 14.6  1014.9    0.0   0.0  ----   0.0   ----- 
Mon 21:30    W  2/  6  24.3 16.0  1015.5    0.0   0.0   0.0   0.0   ----- 
Mon 22:00  ENE  9/ 11  23.1 17.1  1015.0    0.0   0.0   0.0   0.0   ----- 
Mon 22:30  NNE  9/ 13  23.8 15.6  1015.3    0.0   0.0   0.0   0.0   ----- 
Mon 23:00  NNE 11/ 13  23.3 14.8  1015.2    0.0   0.0   0.0   0.0   ----- 
Mon 23:30  NNE 15/ 17  23.1 15.4  1014.7    0.0   0.0   0.0   0.0   ----- 
Tue 00:00  NNE 13/ 17  23.0 15.3  1014.6    0.0   0.0   0.0   0.0   ----- 
Tue 00:30  NNE  9/ 15  22.8 14.9  1014.5    0.0   0.0   0.0   0.0   ----- 
Tue 01:00   NE  9/ 15  22.5 15.1  1014.3    0.0   0.0   0.0   0.0   ----- 
Tue 01:30  NNE 11/ 17  21.9 15.0  1014.1    0.0   0.0   0.0   0.0   ----- 

PARKES AIRPORT AWS

Site: 065068
Alt: 323.3m
7km E of PARKES


  Time     Wind        Temp  DP   Baro     Rain since   Rain past  Vis(m), Cloud(base in m), Weather
  local        km/h                         9am  last   hr   10m    
Mon 20:00  NNW  9/ 15  24.4 13.6  1015.9    0.0   0.0   0.0   0.0   10000|BR3000 OC3750 
Mon 20:00  NNW  9/ 15  24.4 13.6  1015.9    0.0   0.0  ----   0.0   10000|BR3000 OC3750 
Mon 20:30    N 15/ 17  22.1 14.7  1016.0    0.0   0.0   0.0   0.0   10000|SC2550 OC3300 
Mon 20:30    N 15/ 17  22.1 14.7  1016.0    0.0   0.0  ----   0.0   10000|SC2550 OC3300 
Mon 21:00  NNE 13/ 15  20.9 15.9  1016.2    0.2   0.2   0.2   0.0   10000|OC3300 
Mon 21:00  NNE 13/ 15  20.9 15.9  1016.2    0.2   0.0  ----   0.0   10000|OC3300 
Mon 21:30    N  4/  9  20.9 16.5  1016.5    0.2   0.0   0.2   0.0   10000|OC3300 
Mon 22:00    C  0/  0  20.9 17.3  1016.9    0.4   0.2   0.2   0.0   10000|SC2220 SC2730 OC3450 
Mon 22:30    E 13/ 15  20.5 16.9  1016.7    0.4   0.0   0.2   0.0   10000|OC3150 
Mon 23:00  ENE 11/ 13  19.9 17.1  1017.0    0.8   0.4   0.4   0.2   10000|BR2940 OC3450 
Mon 23:30  ENE 15/ 19  19.7 17.5  1016.2    1.0   0.2   0.6   0.0   10000|OC3450 
Tue 00:00    E 13/ 19  19.9 16.9  1015.8    1.0   0.0   0.2   0.0   10000|OC3450 
Tue 00:30  ENE 13/ 19  20.2 15.8  1015.4    1.0   0.0   0.0   0.0   10000|SC2790 OC3150 
Tue 01:00    E 13/ 17  20.2 15.6  1015.3    1.0   0.0   0.0   0.0   10000|OC3150 
Tue 01:30   NE 13/ 17  20.3 15.5  1015.4    1.0   0.0   0.0   0.0   10000|OC3000